Nanjing Lukou Airport
ZSNJ : now visible

Airfield :











YOU CAN JOIN US ON...

 
LOGIN :

Register | Disclaimer

   EN    FR    IT 

 









Legend :    VFR   Marginal VFR   IFR   Intensive IFR   Very Intensive IFR
Visi :
Ceiling :
>= 8 km
>= 3000ft
5 to 8 km
1000 to 3000 ft
1500m to 5 km
500 to 1000 ft
800 to 1500m
200 to 500 ft
< 800m
< 200 ft
Symbols :   Thunderstorms  Fog  Heavy snow  Heavy precipitations  Wind > 20 kt







- Airport Elevation : 49 ft
- IATA code : NKG


ZSNJ - Nanjing Lukou

CURRENT METAR :
  • 201100Z 04002MPS 010V070 2100 -RA BR BKN007 OVC026 04/04 Q1028 NOSIG

EXPIRED METARs :
  • 201000Z 04002MPS 350V070 1800 -RA BR BKN005 OVC026 04/04 Q1027 NOSIG
  • 200900Z 05002MPS 010V080 1600 -RA BR BKN011 OVC033 04/03 Q1027 NOSIG

TAF TAF ZSNJ
Valid from the 20 at 06:00 until the 21 at 06:00 UTC


200303Z 2006/2106 06004MPS 2500 -RA BR BKN010 OVC030 TX06/2006Z TN03/2022Z
TEMPO 2018/2024 1000
ZSHA FIR / Asia



MET'MAP, your aeronautical weather chart ! - Copyright ORBIFLY December 2007 - Disclaimer

ORBIFLY MET'MAP TEAM :

Programming & Development : Alexandra Zaïnal
Concept & Development : Baudouin d'Aumeries
Co-Development & Prog : Marc-Olivier Méhu
Technical & hardware support : Manuel Goepfert

Contact : metmap@orbifly.com




SOURCES & CREDITS :

   NOAA       Earth
Advisory